createdAt,value
2017-11-11T00:00:31.314Z,942.5
2017-11-11T00:01:39.372Z,942.6
2017-11-11T00:02:47.407Z,942.6
2017-11-11T00:03:55.488Z,942.6
2017-11-11T00:05:03.584Z,942.6
2017-11-11T00:06:11.666Z,942.5
2017-11-11T00:07:19.804Z,942.6
2017-11-11T00:08:27.836Z,942.5
2017-11-11T00:09:35.998Z,942.5
2017-11-11T00:10:44.004Z,942.5
2017-11-11T00:11:52.142Z,942.5
2017-11-11T00:13:00.301Z,942.5
2017-11-11T00:14:08.269Z,942.5
2017-11-11T00:15:16.355Z,942.5
2017-11-11T00:16:24.441Z,942.5
2017-11-11T00:17:32.524Z,942.4
2017-11-11T00:18:40.665Z,942.4
2017-11-11T00:19:48.698Z,942.3
2017-11-11T00:20:56.784Z,942.3
2017-11-11T00:22:04.868Z,942.3
2017-11-11T00:23:12.963Z,942.3
2017-11-11T00:24:21.097Z,942.4
2017-11-11T00:25:29.125Z,942.4
2017-11-11T00:26:37.220Z,942.4
2017-11-11T00:27:45.539Z,942.4
2017-11-11T00:28:53.394Z,942.4
2017-11-11T00:30:01.599Z,942.4
2017-11-11T00:31:09.566Z,942.4
2017-11-11T00:32:17.653Z,942.4
2017-11-11T00:33:25.737Z,942.4
2017-11-11T00:34:33.825Z,942.3
2017-11-11T00:35:41.977Z,942.3
2017-11-11T00:36:50.010Z,942.3
2017-11-11T00:37:58.097Z,942.3
2017-11-11T00:39:06.185Z,942.3
2017-11-11T00:40:14.270Z,942.4
2017-11-11T00:41:22.411Z,942.4
2017-11-11T00:42:30.441Z,942.4
2017-11-11T00:43:38.647Z,942.4
2017-11-11T00:44:46.615Z,942.4
2017-11-11T00:45:54.700Z,942.4
2017-11-11T00:47:02.841Z,942.4
2017-11-11T00:48:10.871Z,942.4
2017-11-11T00:49:18.958Z,942.4
2017-11-11T00:50:27.066Z,942.4
2017-11-11T00:51:35.341Z,942.4
2017-11-11T00:52:43.361Z,942.5
2017-11-11T00:53:51.325Z,942.5
2017-11-11T00:54:59.412Z,942.5
2017-11-11T00:56:07.498Z,942.5
2017-11-11T00:57:15.591Z,942.5
2017-11-11T00:58:23.726Z,942.5
2017-11-11T00:59:31.874Z,942.5
2017-11-11T01:00:39.840Z,942.5
2017-11-11T01:01:47.927Z,942.5
2017-11-11T01:02:56.015Z,942.5
2017-11-11T01:04:04.157Z,942.5
2017-11-11T01:05:12.186Z,942.5
2017-11-11T01:06:20.279Z,942.5
2017-11-11T01:07:28.359Z,942.5
2017-11-11T01:08:36.446Z,942.5
2017-11-11T01:09:44.587Z,942.5
2017-11-11T01:10:52.620Z,942.5
2017-11-11T01:12:00.703Z,942.5
2017-11-11T01:13:08.791Z,942.5
2017-11-11T01:14:16.877Z,942.5
2017-11-11T01:15:25.018Z,942.5
2017-11-11T01:16:33.049Z,942.5
2017-11-11T01:17:41.157Z,942.5
2017-11-11T01:18:49.277Z,942.6
2017-11-11T01:19:57.413Z,942.6
2017-11-11T01:21:05.450Z,942.6
2017-11-11T01:22:13.484Z,942.6
2017-11-11T01:23:21.567Z,942.6
2017-11-11T01:24:29.656Z,942.6
2017-11-11T01:25:37.743Z,942.6
2017-11-11T01:26:45.948Z,942.5
2017-11-11T01:27:53.974Z,942.5
2017-11-11T01:29:02.003Z,942.6
2017-11-11T01:30:10.095Z,942.6
2017-11-11T01:31:18.239Z,942.6
2017-11-11T01:32:26.480Z,942.6
2017-11-11T01:33:34.351Z,942.6
2017-11-11T01:34:42.437Z,942.6
2017-11-11T01:35:50.521Z,942.7
2017-11-11T01:36:58.610Z,942.7
2017-11-11T01:38:06.824Z,942.7
2017-11-11T01:39:14.782Z,942.7
2017-11-11T01:40:22.871Z,942.6
2017-11-11T01:41:30.958Z,942.6
2017-11-11T01:42:39.044Z,942.5
2017-11-11T01:43:47.185Z,942.5
2017-11-11T01:44:55.216Z,942.6
2017-11-11T01:46:03.300Z,942.6
2017-11-11T01:47:11.445Z,942.6
2017-11-11T01:48:19.482Z,942.6
2017-11-11T01:49:27.683Z,942.6
2017-11-11T01:50:35.650Z,942.5
2017-11-11T01:51:43.734Z,942.5
2017-11-11T01:52:51.821Z,942.5
2017-11-11T01:53:59.909Z,942.5
2017-11-11T01:55:08.224Z,942.5
2017-11-11T01:56:16.079Z,942.5
2017-11-11T01:57:24.167Z,942.5
2017-11-11T01:58:32.256Z,942.5
2017-11-11T01:59:40.342Z,942.5
2017-11-11T02:00:48.486Z,942.5
2017-11-11T02:01:56.516Z,942.5
2017-11-11T02:03:04.657Z,942.5
2017-11-11T02:04:12.692Z,942.5
2017-11-11T02:05:20.779Z,942.5
2017-11-11T02:06:28.987Z,942.5
2017-11-11T02:07:36.953Z,942.5
2017-11-11T02:08:45.209Z,942.5
2017-11-11T02:09:53.143Z,942.5
2017-11-11T02:11:01.284Z,942.5
2017-11-11T02:12:09.386Z,942.4
2017-11-11T02:13:17.552Z,942.4
2017-11-11T02:14:25.510Z,942.5
2017-11-11T02:15:33.592Z,942.5
2017-11-11T02:16:41.681Z,942.5
2017-11-11T02:17:49.825Z,942.5
2017-11-11T02:18:58.058Z,942.4
2017-11-11T02:20:05.941Z,942.5
2017-11-11T02:21:14.035Z,942.4
2017-11-11T02:22:22.132Z,942.4
2017-11-11T02:23:30.337Z,942.4
2017-11-11T02:24:38.316Z,942.4
2017-11-11T02:25:46.402Z,942.4
2017-11-11T02:26:54.488Z,942.4
2017-11-11T02:28:02.572Z,942.4
2017-11-11T02:29:10.734Z,942.5
2017-11-11T02:30:18.757Z,942.5
2017-11-11T02:31:26.844Z,942.5
2017-11-11T02:32:34.957Z,942.5
2017-11-11T02:33:43.092Z,942.5
2017-11-11T02:34:51.226Z,942.5
2017-11-11T02:35:59.191Z,942.5
2017-11-11T02:37:07.315Z,942.5
2017-11-11T02:38:15.362Z,942.5
2017-11-11T02:39:23.449Z,942.5
2017-11-11T02:40:31.659Z,942.4
2017-11-11T02:41:39.650Z,942.4
2017-11-11T02:42:47.711Z,942.4
2017-11-11T02:43:55.798Z,942.4
2017-11-11T02:45:03.883Z,942.4
2017-11-11T02:46:12.087Z,942.4
2017-11-11T02:47:20.067Z,942.4
2017-11-11T02:48:28.145Z,942.4
2017-11-11T02:49:36.235Z,942.4
2017-11-11T02:50:44.372Z,942.4
2017-11-11T02:51:52.522Z,942.3
2017-11-11T02:53:00.489Z,942.3
2017-11-11T02:54:08.575Z,942.3
2017-11-11T02:55:16.665Z,942.4
2017-11-11T02:56:24.834Z,942.4
2017-11-11T02:57:32.893Z,942.4
2017-11-11T02:58:40.944Z,942.4
2017-11-11T02:59:49.034Z,942.4
2017-11-11T03:00:57.111Z,942.4
2017-11-11T03:02:05.200Z,942.3
2017-11-11T03:03:13.351Z,942.3
2017-11-11T03:04:21.579Z,942.3
2017-11-11T03:05:29.534Z,942.3
2017-11-11T03:06:37.675Z,942.4
2017-11-11T03:07:45.643Z,942.4
2017-11-11T03:08:53.849Z,942.4
2017-11-11T03:10:01.879Z,942.4
2017-11-11T03:11:09.901Z,942.5
2017-11-11T03:12:17.992Z,942.5
2017-11-11T03:13:26.075Z,942.5
2017-11-11T03:14:34.218Z,942.5
2017-11-11T03:15:42.246Z,942.5
2017-11-11T03:16:50.335Z,942.5
2017-11-11T03:17:58.421Z,942.5
2017-11-11T03:19:06.526Z,942.5
2017-11-11T03:20:14.651Z,942.5
2017-11-11T03:21:22.682Z,942.4
2017-11-11T03:22:30.888Z,942.4
2017-11-11T03:23:39.064Z,942.3
2017-11-11T03:24:47.153Z,942.4
2017-11-11T03:25:55.361Z,942.3
2017-11-11T03:27:03.425Z,942.3
2017-11-11T03:28:11.414Z,942.3
2017-11-11T03:29:19.500Z,942.3
2017-11-11T03:30:27.597Z,942.3
2017-11-11T03:31:35.732Z,942.3
2017-11-11T03:32:43.760Z,942.4
2017-11-11T03:33:51.854Z,942.4
2017-11-11T03:34:59.935Z,942.4
2017-11-11T03:36:08.215Z,942.3
2017-11-11T03:37:16.166Z,942.2
2017-11-11T03:38:24.316Z,942.2
2017-11-11T03:39:32.287Z,942.1
2017-11-11T03:40:40.475Z,942.2
2017-11-11T03:41:48.513Z,942.2
2017-11-11T03:42:56.606Z,942.2
2017-11-11T03:44:04.633Z,942.2
2017-11-11T03:45:12.722Z,942.3
2017-11-11T03:46:20.808Z,942.2
2017-11-11T03:47:28.894Z,942.2
2017-11-11T03:48:37.038Z,942.2
2017-11-11T03:49:45.067Z,942.2
2017-11-11T03:50:53.202Z,942.2
2017-11-11T03:52:01.238Z,942.2
2017-11-11T03:53:09.327Z,942.2
2017-11-11T03:54:17.611Z,942.3
2017-11-11T03:55:25.506Z,942.3
2017-11-11T03:56:33.586Z,942.3
2017-11-11T03:57:41.672Z,942.3
2017-11-11T03:58:49.760Z,942.3
2017-11-11T03:59:57.902Z,942.2
2017-11-11T04:01:05.934Z,942.2
2017-11-11T04:02:14.020Z,942.2
2017-11-11T04:03:22.206Z,942.2
2017-11-11T04:04:30.212Z,942.2
2017-11-11T04:05:38.338Z,942.2
2017-11-11T04:06:46.369Z,942.2
2017-11-11T04:07:54.536Z,942.2
2017-11-11T04:09:02.542Z,942.2
2017-11-11T04:10:10.753Z,942.2
2017-11-11T04:11:18.776Z,942.2
2017-11-11T04:12:26.987Z,942.1
2017-11-11T04:13:35.006Z,942.0
2017-11-11T04:14:42.977Z,942.0
2017-11-11T04:15:51.065Z,942.0
2017-11-11T04:16:59.390Z,942.1
2017-11-11T04:18:07.249Z,942.1
2017-11-11T04:19:15.331Z,942.1
2017-11-11T04:20:23.410Z,942.1
2017-11-11T04:21:31.497Z,942.1
2017-11-11T04:22:39.642Z,942.2
2017-11-11T04:23:47.680Z,942.2
2017-11-11T04:24:55.760Z,942.2
2017-11-11T04:26:03.971Z,942.2
2017-11-11T04:27:11.932Z,942.2
2017-11-11T04:28:20.072Z,942.2
2017-11-11T04:29:28.109Z,942.1
2017-11-11T04:30:36.192Z,942.2
2017-11-11T04:31:44.379Z,942.2
2017-11-11T04:32:52.364Z,942.2
2017-11-11T04:34:00.570Z,942.2
2017-11-11T04:35:08.537Z,942.1
2017-11-11T04:36:16.630Z,942.1
2017-11-11T04:37:24.707Z,942.1
2017-11-11T04:38:32.793Z,942.1
2017-11-11T04:39:41.000Z,942.1
2017-11-11T04:40:48.968Z,942.1
2017-11-11T04:41:57.172Z,942.0
2017-11-11T04:43:05.144Z,942.0
2017-11-11T04:44:13.234Z,942.0
2017-11-11T04:45:21.597Z,942.0
2017-11-11T04:46:29.414Z,942.0
2017-11-11T04:47:37.501Z,941.9
2017-11-11T04:48:45.588Z,941.9
2017-11-11T04:49:53.707Z,941.9
2017-11-11T04:51:01.817Z,941.8
2017-11-11T04:52:09.848Z,941.8
2017-11-11T04:53:17.942Z,941.8
2017-11-11T04:54:26.049Z,941.9
2017-11-11T04:55:34.131Z,941.9
2017-11-11T04:56:42.340Z,942.0
2017-11-11T04:57:50.424Z,942.0
2017-11-11T04:58:58.545Z,942.1
2017-11-11T05:00:06.476Z,942.1
2017-11-11T05:01:14.562Z,942.0
2017-11-11T05:02:22.713Z,942.0
2017-11-11T05:03:30.742Z,942.0
2017-11-11T05:04:38.824Z,942.0
2017-11-11T05:05:46.916Z,942.0
2017-11-11T05:06:54.997Z,942.0
2017-11-11T05:08:03.140Z,942.0
2017-11-11T05:09:11.169Z,942.0
2017-11-11T05:10:19.263Z,942.0
2017-11-11T05:11:27.347Z,942.0
2017-11-11T05:12:35.428Z,942.0
2017-11-11T05:13:43.633Z,942.0
2017-11-11T05:14:51.601Z,942.1
2017-11-11T05:15:59.689Z,942.1
2017-11-11T05:17:07.773Z,942.1
2017-11-11T05:18:16.036Z,942.1
2017-11-11T05:19:24.003Z,942.1
2017-11-11T05:20:32.033Z,942.0
2017-11-11T05:21:40.118Z,942.0
2017-11-11T05:22:48.204Z,941.9
2017-11-11T05:23:56.291Z,941.9
2017-11-11T05:25:04.496Z,941.9
2017-11-11T05:26:12.462Z,941.9
2017-11-11T05:27:20.558Z,941.9
2017-11-11T05:28:28.633Z,942.0
2017-11-11T05:29:36.845Z,942.0
2017-11-11T05:30:44.862Z,942.0
2017-11-11T05:31:52.895Z,942.0
2017-11-11T05:33:00.979Z,942.0
2017-11-11T05:34:09.066Z,942.0
2017-11-11T05:35:17.152Z,942.0
2017-11-11T05:36:25.301Z,942.0
2017-11-11T05:37:34.030Z,942.0
2017-11-11T05:38:42.136Z,942.0
2017-11-11T05:39:50.207Z,942.0
2017-11-11T05:40:58.290Z,942.0
2017-11-11T05:42:06.431Z,942.1
2017-11-11T05:43:14.461Z,942.0
2017-11-11T05:44:22.546Z,942.0
2017-11-11T05:45:30.688Z,941.9
2017-11-11T05:46:38.719Z,941.9
2017-11-11T05:47:46.862Z,941.8
2017-11-11T05:48:54.906Z,941.7
2017-11-11T05:50:03.001Z,941.7
2017-11-11T05:51:11.078Z,941.7
2017-11-11T05:52:19.235Z,941.8
2017-11-11T05:53:27.375Z,941.9
2017-11-11T05:54:35.340Z,941.9
2017-11-11T05:55:43.427Z,942.0
2017-11-11T05:56:51.513Z,942.0
2017-11-11T05:57:59.600Z,942.0
2017-11-11T05:59:07.742Z,942.0
2017-11-11T06:00:15.770Z,942.0
2017-11-11T06:01:23.978Z,942.0
2017-11-11T06:02:31.944Z,942.0
2017-11-11T06:03:40.179Z,942.1
2017-11-11T06:04:48.379Z,942.1
2017-11-11T06:05:56.350Z,942.1
2017-11-11T06:07:04.438Z,942.1
2017-11-11T06:08:12.527Z,942.1
2017-11-11T06:09:20.617Z,942.1
2017-11-11T06:10:28.817Z,942.1
2017-11-11T06:11:37.410Z,942.1
2017-11-11T06:12:45.009Z,942.1
2017-11-11T06:13:53.229Z,942.1
2017-11-11T06:15:01.045Z,942.1
2017-11-11T06:16:09.261Z,942.0
2017-11-11T06:17:17.279Z,942.0
2017-11-11T06:18:25.412Z,942.0
2017-11-11T06:19:33.499Z,942.0
2017-11-11T06:20:41.585Z,942.0
2017-11-11T06:21:49.726Z,941.9
2017-11-11T06:22:57.903Z,941.9
2017-11-11T06:24:05.845Z,941.9
2017-11-11T06:25:13.928Z,941.9
2017-11-11T06:26:22.013Z,941.9
2017-11-11T06:27:31.014Z,941.9
2017-11-11T06:28:38.804Z,941.9
2017-11-11T06:29:46.798Z,941.8
2017-11-11T06:30:54.413Z,941.9
2017-11-11T06:32:02.996Z,941.9
2017-11-11T06:33:10.592Z,941.9
2017-11-11T06:34:18.614Z,941.9
2017-11-11T06:35:26.699Z,941.9
2017-11-11T06:36:34.788Z,942.0
2017-11-11T06:37:42.878Z,942.0
2017-11-11T06:38:53.164Z,942.0
2017-11-11T06:39:59.143Z,942.0
2017-11-11T06:41:07.136Z,942.0
2017-11-11T06:42:15.217Z,942.1
2017-11-11T06:43:23.716Z,942.1
2017-11-11T06:44:32.085Z,942.0
2017-11-11T06:45:39.495Z,942.0
2017-11-11T06:46:47.581Z,942.0
2017-11-11T06:47:56.204Z,942.0
2017-11-11T06:49:03.826Z,942.1
2017-11-11T06:50:12.170Z,942.0
2017-11-11T06:51:19.943Z,942.0
2017-11-11T06:52:28.717Z,942.0
2017-11-11T06:53:36.313Z,942.0
2017-11-11T06:54:44.198Z,942.0
2017-11-11T06:55:53.237Z,942.0
2017-11-11T06:57:00.372Z,942.0
2017-11-11T06:58:08.456Z,941.9
2017-11-11T06:59:16.544Z,941.9
2017-11-11T07:00:25.266Z,941.9
2017-11-11T07:01:33.502Z,941.9
2017-11-11T07:02:41.434Z,942.0
2017-11-11T07:03:49.519Z,942.0
2017-11-11T07:04:57.661Z,942.0
2017-11-11T07:06:05.691Z,942.0
2017-11-11T07:07:13.835Z,942.0
2017-11-11T07:08:21.870Z,942.0
2017-11-11T07:09:29.949Z,942.0
2017-11-11T07:10:38.049Z,942.0
2017-11-11T07:11:46.186Z,942.0
2017-11-11T07:12:54.749Z,942.0
2017-11-11T07:14:02.302Z,942.0
2017-11-11T07:15:10.387Z,942.0
2017-11-11T07:16:18.613Z,942.0
2017-11-11T07:17:26.558Z,942.0
2017-11-11T07:18:34.763Z,942.0
2017-11-11T07:19:42.745Z,942.0
2017-11-11T07:20:50.881Z,942.0
2017-11-11T07:21:58.982Z,941.9
2017-11-11T07:23:07.425Z,942.0
2017-11-11T07:24:15.137Z,941.9
2017-11-11T07:25:23.167Z,941.9
2017-11-11T07:26:31.251Z,941.9
2017-11-11T07:27:39.341Z,941.9
2017-11-11T07:28:47.431Z,941.9
2017-11-11T07:29:55.692Z,941.9
2017-11-11T07:31:03.597Z,941.9
2017-11-11T07:32:11.694Z,941.9
2017-11-11T07:33:19.777Z,941.9
2017-11-11T07:34:27.866Z,941.9
2017-11-11T07:35:36.010Z,941.9
2017-11-11T07:36:44.091Z,941.9
2017-11-11T07:37:52.126Z,941.9
2017-11-11T07:39:00.325Z,941.9
2017-11-11T07:40:08.298Z,941.9
2017-11-11T07:41:16.503Z,941.9
2017-11-11T07:42:24.472Z,941.9
2017-11-11T07:43:32.557Z,941.9
2017-11-11T07:44:40.642Z,941.8
2017-11-11T07:45:48.733Z,941.8
2017-11-11T07:46:56.873Z,941.8
2017-11-11T07:48:04.927Z,941.8
2017-11-11T07:49:12.986Z,941.7
2017-11-11T07:50:21.070Z,941.7
2017-11-11T07:51:29.155Z,941.7
2017-11-11T07:52:37.298Z,941.7
2017-11-11T07:53:45.407Z,941.7
2017-11-11T07:54:53.452Z,941.6
2017-11-11T07:56:01.501Z,941.6
2017-11-11T07:57:09.592Z,941.6
2017-11-11T07:58:17.800Z,941.6
2017-11-11T07:59:25.764Z,941.5
2017-11-11T08:00:33.852Z,941.5
2017-11-11T08:01:41.936Z,941.5
2017-11-11T08:02:50.035Z,941.5
2017-11-11T08:03:58.164Z,941.5
2017-11-11T08:05:06.193Z,941.5
2017-11-11T08:06:14.279Z,941.5
2017-11-11T08:07:22.365Z,941.5
2017-11-11T08:08:30.571Z,941.5
2017-11-11T08:09:38.666Z,941.5
2017-11-11T08:10:46.622Z,941.5
2017-11-11T08:11:54.708Z,941.5
2017-11-11T08:13:02.795Z,941.5
2017-11-11T08:14:10.881Z,941.4
2017-11-11T08:15:19.513Z,941.4
2017-11-11T08:16:27.091Z,941.4
2017-11-11T08:17:35.180Z,941.4
2017-11-11T08:18:43.264Z,941.4
2017-11-11T08:19:51.539Z,941.4
2017-11-11T08:20:59.492Z,941.4
2017-11-11T08:22:07.522Z,941.4
2017-11-11T08:23:15.610Z,941.3
2017-11-11T08:24:23.752Z,941.3
2017-11-11T08:25:31.780Z,941.4
2017-11-11T08:26:39.990Z,941.4
2017-11-11T08:27:47.950Z,941.4
2017-11-11T08:28:56.037Z,941.2
2017-11-11T08:30:04.151Z,941.2
2017-11-11T08:31:12.211Z,941.3
2017-11-11T08:32:20.369Z,941.2
2017-11-11T08:33:28.380Z,941.2
2017-11-11T08:34:36.526Z,941.2
2017-11-11T08:35:44.551Z,941.2
2017-11-11T08:36:52.635Z,941.1
2017-11-11T08:38:00.779Z,941.1
2017-11-11T08:39:08.823Z,941.1
2017-11-11T08:40:19.134Z,941.0
2017-11-11T08:41:24.988Z,941.0
2017-11-11T08:42:33.069Z,941.0
2017-11-11T08:43:41.724Z,940.9
2017-11-11T08:44:49.413Z,940.9
2017-11-11T08:45:57.379Z,940.9
2017-11-11T08:47:05.414Z,940.9
2017-11-11T08:48:13.689Z,940.9
2017-11-11T08:49:21.639Z,941.0
2017-11-11T08:50:29.750Z,940.9
2017-11-11T08:51:37.780Z,940.9
2017-11-11T08:52:46.432Z,940.8
2017-11-11T08:53:53.929Z,940.9
2017-11-11T08:55:03.522Z,940.8
2017-11-11T08:56:10.434Z,940.8
2017-11-11T08:57:18.386Z,940.7
2017-11-11T08:58:26.271Z,940.7
2017-11-11T08:59:34.357Z,940.6
2017-11-11T09:00:42.499Z,940.6
2017-11-11T09:01:50.529Z,940.6
2017-11-11T09:02:58.658Z,940.6
2017-11-11T09:04:06.746Z,940.5
2017-11-11T09:05:14.829Z,940.5
2017-11-11T09:06:23.135Z,940.5
2017-11-11T09:07:31.002Z,940.5
2017-11-11T09:08:39.093Z,940.5
2017-11-11T09:09:47.174Z,940.5
2017-11-11T09:10:55.258Z,940.5
2017-11-11T09:12:03.441Z,940.5
2017-11-11T09:13:11.433Z,940.5
2017-11-11T09:14:19.526Z,940.5
2017-11-11T09:15:27.968Z,940.5
2017-11-11T09:16:35.690Z,940.5
2017-11-11T09:17:43.830Z,940.5
2017-11-11T09:18:51.859Z,940.5
2017-11-11T09:19:59.947Z,940.4
2017-11-11T09:21:08.032Z,940.4
2017-11-11T09:22:16.126Z,940.4
2017-11-11T09:23:24.472Z,940.4
2017-11-11T09:24:32.504Z,940.4
2017-11-11T09:25:40.603Z,940.3
2017-11-11T09:26:48.678Z,940.4
2017-11-11T09:27:56.823Z,940.2
2017-11-11T09:29:04.905Z,940.3
2017-11-11T09:30:12.934Z,940.3
2017-11-11T09:31:21.019Z,940.3
2017-11-11T09:32:29.285Z,940.2
2017-11-11T09:33:37.192Z,940.2
2017-11-11T09:34:45.816Z,940.2
2017-11-11T09:35:53.739Z,940.2
2017-11-11T09:37:01.848Z,940.2
2017-11-11T09:38:09.916Z,940.2
2017-11-11T09:39:17.999Z,940.2
2017-11-11T09:40:26.139Z,940.3
2017-11-11T09:41:34.178Z,940.2
2017-11-11T09:42:42.253Z,940.1
2017-11-11T09:43:50.461Z,940.2
2017-11-11T09:44:58.425Z,940.2
2017-11-11T09:46:06.569Z,940.2
2017-11-11T09:47:14.598Z,940.2
2017-11-11T09:48:22.685Z,940.1
2017-11-11T09:49:30.772Z,940.1
2017-11-11T09:50:38.979Z,940.1
2017-11-11T09:51:47.064Z,940.2
2017-11-11T09:52:55.480Z,940.1
2017-11-11T09:54:03.551Z,940.0
2017-11-11T09:55:11.201Z,940.0
2017-11-11T09:56:19.477Z,940.0
2017-11-11T09:57:27.428Z,940.0
2017-11-11T09:58:35.457Z,940.0
2017-11-11T09:59:44.235Z,939.9
2017-11-11T10:00:51.632Z,940.0
2017-11-11T10:02:00.305Z,939.9
2017-11-11T10:03:08.872Z,939.9
2017-11-11T10:04:16.475Z,939.9
2017-11-11T10:05:24.533Z,939.9
2017-11-11T10:06:32.738Z,940.0
2017-11-11T10:07:40.840Z,939.9
2017-11-11T10:08:48.914Z,939.8
2017-11-11T10:09:57.015Z,939.9
2017-11-11T10:11:04.968Z,939.8
2017-11-11T10:12:13.233Z,939.8
2017-11-11T10:13:21.622Z,939.8
2017-11-11T10:14:29.741Z,939.8
2017-11-11T10:15:38.208Z,939.8
2017-11-11T10:16:45.865Z,939.7
2017-11-11T10:17:54.522Z,939.8
2017-11-11T10:19:02.038Z,939.7
2017-11-11T10:20:12.131Z,939.7
2017-11-11T10:21:18.454Z,939.6
2017-11-11T10:22:26.297Z,939.6
2017-11-11T10:23:34.451Z,939.6
2017-11-11T10:24:42.484Z,939.5
2017-11-11T10:25:50.679Z,939.5
2017-11-11T10:26:58.644Z,939.6
2017-11-11T10:28:06.918Z,939.6
2017-11-11T10:29:14.823Z,939.6
2017-11-11T10:30:23.049Z,939.6
2017-11-11T10:31:31.239Z,939.5
2017-11-11T10:32:39.086Z,939.5
2017-11-11T10:33:47.300Z,939.5
2017-11-11T10:34:55.574Z,939.5
2017-11-11T10:36:03.659Z,939.4
2017-11-11T10:37:11.804Z,939.4
2017-11-11T10:38:19.834Z,939.4
2017-11-11T10:39:27.920Z,939.4
2017-11-11T10:40:36.042Z,939.4
2017-11-11T10:41:44.136Z,939.4
2017-11-11T10:42:52.347Z,939.4
2017-11-11T10:44:00.497Z,939.4
2017-11-11T10:45:08.591Z,939.4
2017-11-11T10:46:16.485Z,939.3
2017-11-11T10:47:25.171Z,939.3
2017-11-11T10:48:32.779Z,939.3
2017-11-11T10:49:40.749Z,939.2
2017-11-11T10:50:48.830Z,939.3
2017-11-11T10:51:56.916Z,939.3
2017-11-11T10:53:05.003Z,939.2
2017-11-11T10:54:13.147Z,939.2
2017-11-11T10:55:21.177Z,939.2
2017-11-11T10:56:29.265Z,939.4
2017-11-11T10:57:37.636Z,939.2
2017-11-11T10:58:45.677Z,939.3
2017-11-11T10:59:53.790Z,939.2
2017-11-11T11:01:01.816Z,939.2
2017-11-11T11:02:09.903Z,939.1
2017-11-11T11:03:18.274Z,939.1
2017-11-11T11:04:26.155Z,939.1
2017-11-11T11:05:34.220Z,939.2
2017-11-11T11:06:42.253Z,939.1
2017-11-11T11:07:50.487Z,939.0
2017-11-11T11:08:58.425Z,939.0
2017-11-11T11:10:06.523Z,939.1
2017-11-11T11:11:14.660Z,939.1
2017-11-11T11:12:22.837Z,939.0
2017-11-11T11:13:30.778Z,939.0
2017-11-11T11:14:38.892Z,939.0
2017-11-11T11:15:46.953Z,939.0
2017-11-11T11:16:55.094Z,938.9
2017-11-11T11:18:03.196Z,939.0
2017-11-11T11:19:11.350Z,938.9
2017-11-11T11:20:19.317Z,938.9
2017-11-11T11:21:27.403Z,938.9
2017-11-11T11:22:35.547Z,938.8
2017-11-11T11:23:43.602Z,938.9
2017-11-11T11:24:51.662Z,938.8
2017-11-11T11:25:59.748Z,938.8
2017-11-11T11:27:07.836Z,938.8
2017-11-11T11:28:15.980Z,938.8
2017-11-11T11:29:24.009Z,938.8
2017-11-11T11:30:32.221Z,938.8
2017-11-11T11:31:40.194Z,938.8
2017-11-11T11:32:48.271Z,938.7
2017-11-11T11:33:56.415Z,938.7
2017-11-11T11:35:04.565Z,938.7
2017-11-11T11:36:12.530Z,938.7
2017-11-11T11:37:20.620Z,938.6
2017-11-11T11:38:28.703Z,938.6
2017-11-11T11:39:36.993Z,938.6
2017-11-11T11:40:44.878Z,938.6
2017-11-11T11:41:52.965Z,938.5
2017-11-11T11:43:01.055Z,938.5
2017-11-11T11:44:09.262Z,938.5
2017-11-11T11:45:17.397Z,938.5
2017-11-11T11:46:25.318Z,938.5
2017-11-11T11:47:33.398Z,938.5
2017-11-11T11:48:41.485Z,938.4
2017-11-11T11:49:49.628Z,938.5
2017-11-11T11:50:57.716Z,938.4
2017-11-11T11:52:05.748Z,938.5
2017-11-11T11:53:13.839Z,938.4
2017-11-11T11:54:21.986Z,938.4
2017-11-11T11:55:30.016Z,938.5
2017-11-11T11:56:38.157Z,938.4
2017-11-11T11:57:46.417Z,938.4
2017-11-11T11:58:54.426Z,938.4
2017-11-11T12:00:02.442Z,938.4
2017-11-11T12:01:10.456Z,938.4
2017-11-11T12:02:18.595Z,938.3
2017-11-11T12:03:26.615Z,938.4
2017-11-11T12:04:34.710Z,938.4
2017-11-11T12:05:42.796Z,938.3
2017-11-11T12:06:51.007Z,938.3
2017-11-11T12:07:59.058Z,938.3
2017-11-11T12:09:07.138Z,938.2
2017-11-11T12:10:15.142Z,938.3
2017-11-11T12:11:23.230Z,938.2
2017-11-11T12:12:31.464Z,938.2
2017-11-11T12:13:39.458Z,938.2
2017-11-11T12:14:47.489Z,938.3
2017-11-11T12:15:55.578Z,938.1
2017-11-11T12:17:03.664Z,938.1
2017-11-11T12:18:11.752Z,938.1
2017-11-11T12:19:19.967Z,938.1
2017-11-11T12:20:27.932Z,938.1
2017-11-11T12:21:36.051Z,938.1
2017-11-11T12:22:44.155Z,938.1
2017-11-11T12:23:52.187Z,938.1
2017-11-11T12:25:00.419Z,938.1
2017-11-11T12:26:08.360Z,938.1
2017-11-11T12:27:16.451Z,938.1
2017-11-11T12:28:24.534Z,938.0
2017-11-11T12:29:32.683Z,938.1
2017-11-11T12:30:40.830Z,938.0
2017-11-11T12:31:48.794Z,938.1
2017-11-11T12:32:56.880Z,938.0
2017-11-11T12:34:04.967Z,938.0
2017-11-11T12:35:13.508Z,938.0
2017-11-11T12:36:21.250Z,938.0
2017-11-11T12:37:29.232Z,938.0
2017-11-11T12:38:37.373Z,937.9
2017-11-11T12:39:45.405Z,937.9
2017-11-11T12:40:53.671Z,937.9
2017-11-11T12:42:02.202Z,937.9
2017-11-11T12:43:09.680Z,937.9
2017-11-11T12:44:17.753Z,937.9
2017-11-11T12:45:25.880Z,937.8
2017-11-11T12:46:33.988Z,937.8
2017-11-11T12:47:42.019Z,937.8
2017-11-11T12:48:50.105Z,937.8
2017-11-11T12:49:58.237Z,937.8
2017-11-11T12:51:06.278Z,937.7
2017-11-11T12:52:14.485Z,937.7
2017-11-11T12:53:22.451Z,937.6
2017-11-11T12:54:30.786Z,937.6
2017-11-11T12:55:38.625Z,937.6
2017-11-11T12:56:46.712Z,937.6
2017-11-11T12:57:54.863Z,937.7
2017-11-11T12:59:02.902Z,937.6
2017-11-11T13:00:10.994Z,937.6
2017-11-11T13:01:19.076Z,937.6
2017-11-11T13:02:27.167Z,937.6
2017-11-11T13:03:35.307Z,937.5
2017-11-11T13:04:43.338Z,937.5
2017-11-11T13:05:51.424Z,937.5
2017-11-11T13:06:59.510Z,937.5
2017-11-11T13:08:07.596Z,937.4
2017-11-11T13:09:15.958Z,937.4
2017-11-11T13:10:23.845Z,937.5
2017-11-11T13:11:31.874Z,937.4
2017-11-11T13:12:39.972Z,937.3
2017-11-11T13:13:48.354Z,937.4
2017-11-11T13:14:56.498Z,937.4
2017-11-11T13:16:04.527Z,937.3
2017-11-11T13:17:12.617Z,937.2
2017-11-11T13:18:20.703Z,937.2
2017-11-11T13:19:28.787Z,937.2
2017-11-11T13:20:37.080Z,937.2
2017-11-11T13:21:44.961Z,937.2
2017-11-11T13:22:53.046Z,937.2
2017-11-11T13:24:01.135Z,937.2
2017-11-11T13:25:09.345Z,937.1
2017-11-11T13:26:17.429Z,937.1
2017-11-11T13:27:25.396Z,937.1
2017-11-11T13:28:33.485Z,937.1
2017-11-11T13:29:41.572Z,937.1
2017-11-11T13:30:49.665Z,937.1
2017-11-11T13:31:57.798Z,937.1
2017-11-11T13:33:05.833Z,937.1
2017-11-11T13:34:13.918Z,937.1
2017-11-11T13:35:22.006Z,937.1
2017-11-11T13:36:30.090Z,937.1
2017-11-11T13:37:38.234Z,937.1
2017-11-11T13:38:46.267Z,937.0
2017-11-11T13:39:54.495Z,937.0
2017-11-11T13:41:02.441Z,937.0
2017-11-11T13:42:10.650Z,937.0
2017-11-11T13:43:18.672Z,937.0
2017-11-11T13:44:26.704Z,936.9
2017-11-11T13:45:34.790Z,937.0
2017-11-11T13:46:42.878Z,936.9
2017-11-11T13:47:51.150Z,936.9
2017-11-11T13:48:59.110Z,937.0
2017-11-11T13:50:07.141Z,936.9
2017-11-11T13:51:15.230Z,936.9
2017-11-11T13:52:23.313Z,937.0
2017-11-11T13:53:31.400Z,936.9
2017-11-11T13:54:39.544Z,936.9
2017-11-11T13:55:47.578Z,936.9
2017-11-11T13:56:55.768Z,936.9
2017-11-11T13:58:04.281Z,936.8
2017-11-11T13:59:11.943Z,936.9
2017-11-11T14:00:20.773Z,936.8
2017-11-11T14:01:28.119Z,936.8
2017-11-11T14:02:36.362Z,936.8
2017-11-11T14:03:44.293Z,936.8
2017-11-11T14:04:52.392Z,936.8
2017-11-11T14:06:00.586Z,936.8
2017-11-11T14:07:08.553Z,936.8
2017-11-11T14:08:16.640Z,936.8
2017-11-11T14:09:24.732Z,936.8
2017-11-11T14:10:32.902Z,936.7
2017-11-11T14:11:41.034Z,936.7
2017-11-11T14:12:48.993Z,936.7
2017-11-11T14:13:57.136Z,936.8
2017-11-11T14:15:05.275Z,936.7
2017-11-11T14:16:13.253Z,936.7
2017-11-11T14:17:21.397Z,936.7
2017-11-11T14:18:29.428Z,936.8
2017-11-11T14:19:37.525Z,936.7
2017-11-11T14:20:45.622Z,936.7
2017-11-11T14:21:53.709Z,936.7
2017-11-11T14:23:01.922Z,936.7
2017-11-11T14:24:09.964Z,936.7
2017-11-11T14:25:18.104Z,936.7
2017-11-11T14:26:26.058Z,936.7
2017-11-11T14:27:34.146Z,936.7
2017-11-11T14:28:42.552Z,936.7
2017-11-11T14:29:50.496Z,936.7
2017-11-11T14:30:58.408Z,936.8
2017-11-11T14:32:06.494Z,936.7
2017-11-11T14:33:14.675Z,936.7
2017-11-11T14:34:22.731Z,936.7
2017-11-11T14:35:30.759Z,936.6
2017-11-11T14:36:38.847Z,936.7